createdAt,value
2019-03-20T00:01:24.714Z,22.43
2019-03-20T00:03:50.721Z,22.43
2019-03-20T00:06:16.716Z,22.43
2019-03-20T00:08:42.714Z,22.42
2019-03-20T00:11:08.716Z,22.42
2019-03-20T00:13:34.740Z,22.42
2019-03-20T00:16:00.737Z,22.41
2019-03-20T00:18:26.728Z,22.42
2019-03-20T00:20:52.726Z,22.41
2019-03-20T00:23:18.723Z,22.41
2019-03-20T00:25:44.727Z,22.41
2019-03-20T00:28:10.727Z,22.40
2019-03-20T00:30:36.732Z,22.40
2019-03-20T00:33:02.818Z,22.40
2019-03-20T00:35:28.818Z,22.40
2019-03-20T00:37:54.821Z,22.41
2019-03-20T00:40:20.818Z,22.40
2019-03-20T00:42:46.828Z,22.40
2019-03-20T00:45:12.826Z,22.40
2019-03-20T00:47:38.843Z,22.40
2019-03-20T00:50:04.838Z,22.39
2019-03-20T00:52:30.892Z,22.39
2019-03-20T00:54:56.841Z,22.39
2019-03-20T00:57:22.828Z,22.39
2019-03-20T00:59:48.829Z,22.38
2019-03-20T01:02:14.818Z,22.39
2019-03-20T01:04:40.821Z,22.39
2019-03-20T01:07:06.811Z,22.38
2019-03-20T01:09:32.837Z,22.38
2019-03-20T01:11:58.830Z,22.38
2019-03-20T01:14:24.824Z,22.38
2019-03-20T01:16:50.822Z,22.38
2019-03-20T01:19:16.815Z,22.38
2019-03-20T01:21:42.819Z,22.38
2019-03-20T01:24:08.806Z,22.37
2019-03-20T01:26:34.812Z,22.38
2019-03-20T01:29:00.808Z,22.37
2019-03-20T01:31:26.802Z,22.37
2019-03-20T01:33:54.863Z,22.37
2019-03-20T01:36:18.828Z,22.37
2019-03-20T01:38:44.825Z,22.37
2019-03-20T01:41:10.821Z,22.36
2019-03-20T01:43:36.828Z,22.36
2019-03-20T01:46:02.829Z,22.36
2019-03-20T01:48:28.832Z,22.36
2019-03-20T01:50:54.827Z,22.35
2019-03-20T01:53:20.828Z,22.36
2019-03-20T01:55:46.823Z,22.35
2019-03-20T01:58:12.839Z,22.35
2019-03-20T02:00:38.828Z,22.35
2019-03-20T02:03:04.833Z,22.35
2019-03-20T02:05:35.924Z,22.35
2019-03-20T02:07:56.822Z,22.35
2019-03-20T02:10:22.823Z,22.34
2019-03-20T02:12:48.825Z,22.35
2019-03-20T02:15:14.818Z,22.34
2019-03-20T02:17:40.815Z,22.34
2019-03-20T02:20:06.814Z,22.33
2019-03-20T02:22:32.807Z,22.33
2019-03-20T02:24:58.804Z,22.33
2019-03-20T02:27:24.799Z,22.33
2019-03-20T02:29:50.789Z,22.34
2019-03-20T02:32:16.794Z,22.33
2019-03-20T02:34:42.790Z,22.33
2019-03-20T02:37:08.801Z,22.33
2019-03-20T02:39:34.799Z,22.32
2019-03-20T02:42:00.799Z,22.32
2019-03-20T02:44:26.807Z,22.31
2019-03-20T02:46:52.788Z,22.32
2019-03-20T02:49:18.787Z,22.32
2019-03-20T02:51:44.852Z,22.32
2019-03-20T02:54:10.792Z,22.32
2019-03-20T02:56:36.789Z,22.31
2019-03-20T02:59:02.795Z,22.31
2019-03-20T03:01:28.787Z,22.31
2019-03-20T03:03:54.806Z,22.31
2019-03-20T03:06:20.798Z,22.31
2019-03-20T03:08:46.791Z,22.30
2019-03-20T03:11:12.793Z,22.31
2019-03-20T03:13:38.793Z,22.30
2019-03-20T03:16:04.792Z,22.30
2019-03-20T03:18:30.782Z,22.30
2019-03-20T03:20:56.787Z,22.29
2019-03-20T03:23:22.779Z,22.29
2019-03-20T03:25:50.133Z,22.30
2019-03-20T03:28:14.780Z,22.30
2019-03-20T03:30:40.788Z,22.29
2019-03-20T03:33:06.780Z,22.29
2019-03-20T03:35:32.804Z,22.29
2019-03-20T03:37:58.802Z,22.29
2019-03-20T03:40:24.799Z,22.29
2019-03-20T03:42:50.811Z,22.29
2019-03-20T03:45:16.801Z,22.29
2019-03-20T03:47:42.801Z,22.29
2019-03-20T03:50:08.804Z,22.29
2019-03-20T03:52:34.797Z,22.29
2019-03-20T03:55:00.792Z,22.28
2019-03-20T03:57:26.813Z,22.28
2019-03-20T03:59:52.815Z,22.29
2019-03-20T04:02:18.822Z,22.28
2019-03-20T04:04:44.823Z,22.28
2019-03-20T04:07:10.811Z,22.28
2019-03-20T04:09:36.820Z,22.27
2019-03-20T04:12:02.812Z,22.27
2019-03-20T04:14:28.814Z,22.27
2019-03-20T04:16:54.809Z,22.27
2019-03-20T04:19:20.806Z,22.26
2019-03-20T04:21:46.811Z,22.26
2019-03-20T04:24:12.850Z,22.26
2019-03-20T04:26:38.853Z,22.26
2019-03-20T04:29:04.831Z,22.26
2019-03-20T04:31:30.835Z,22.26
2019-03-20T04:33:57.815Z,22.26
2019-03-20T04:36:22.852Z,22.26
2019-03-20T04:38:48.853Z,22.26
2019-03-20T04:41:14.852Z,22.25
2019-03-20T04:43:40.849Z,22.25
2019-03-20T04:46:06.872Z,22.25
2019-03-20T04:48:32.867Z,22.26
2019-03-20T04:50:58.865Z,22.25
2019-03-20T04:53:24.881Z,22.26
2019-03-20T04:55:50.883Z,22.27
2019-03-20T04:58:16.885Z,22.28
2019-03-20T05:00:42.882Z,22.28
2019-03-20T05:03:08.883Z,22.28
2019-03-20T05:05:34.880Z,22.28
2019-03-20T05:08:00.878Z,22.29
2019-03-20T05:10:26.876Z,22.30
2019-03-20T05:12:52.900Z,22.30
2019-03-20T05:15:19.100Z,22.30
2019-03-20T05:17:45.121Z,22.30
2019-03-20T05:20:11.132Z,22.30
2019-03-20T05:22:37.119Z,22.31
2019-03-20T05:25:03.123Z,22.31
2019-03-20T05:27:29.110Z,22.32
2019-03-20T05:29:55.104Z,22.32
2019-03-20T05:32:21.108Z,22.31
2019-03-20T05:34:47.129Z,22.31
2019-03-20T05:37:13.141Z,22.32
2019-03-20T05:39:39.136Z,22.29
2019-03-20T05:42:05.160Z,22.31
2019-03-20T05:44:31.173Z,22.33
2019-03-20T05:46:57.175Z,22.32
2019-03-20T05:49:23.170Z,22.32
2019-03-20T05:51:49.168Z,22.32
2019-03-20T05:54:15.168Z,22.32
2019-03-20T05:56:41.179Z,22.32
2019-03-20T05:59:07.180Z,22.31
2019-03-20T06:01:33.178Z,22.30
2019-03-20T06:03:59.410Z,22.30
2019-03-20T06:06:25.444Z,22.31
2019-03-20T06:08:51.454Z,22.30
2019-03-20T06:11:17.455Z,22.30
2019-03-20T06:13:43.462Z,22.30
2019-03-20T06:16:09.471Z,22.30
2019-03-20T06:18:35.488Z,22.30
2019-03-20T06:21:01.494Z,22.29
2019-03-20T06:23:27.501Z,22.27
2019-03-20T06:25:53.514Z,22.30
2019-03-20T06:28:19.514Z,22.30
2019-03-20T06:30:45.587Z,22.28
2019-03-20T06:33:11.579Z,22.29
2019-03-20T06:35:37.634Z,22.30
2019-03-20T06:38:03.636Z,22.29
2019-03-20T06:40:29.631Z,22.30
2019-03-20T06:42:55.637Z,22.29
2019-03-20T06:45:21.631Z,22.29
2019-03-20T06:47:47.656Z,22.29
2019-03-20T06:50:13.656Z,22.29
2019-03-20T06:52:39.672Z,22.27
2019-03-20T06:55:05.684Z,22.30
2019-03-20T06:57:31.688Z,22.30
2019-03-20T06:59:57.684Z,22.28
2019-03-20T07:02:23.817Z,22.30
2019-03-20T07:04:49.855Z,22.29
2019-03-20T07:07:15.850Z,22.29
2019-03-20T07:09:41.868Z,22.30
2019-03-20T07:12:08.178Z,22.27
2019-03-20T07:14:34.237Z,22.29
2019-03-20T07:17:00.231Z,22.30
2019-03-20T07:19:26.238Z,22.29
2019-03-20T07:21:52.237Z,22.30
2019-03-20T07:24:18.240Z,22.29
2019-03-20T07:26:44.237Z,22.29
2019-03-20T07:29:10.269Z,22.29
2019-03-20T07:31:36.272Z,22.29
2019-03-20T07:34:02.268Z,22.30
2019-03-20T07:36:28.277Z,22.29
2019-03-20T07:38:54.275Z,22.30
2019-03-20T07:41:20.282Z,22.30
2019-03-20T07:43:46.283Z,22.30
2019-03-20T07:46:12.279Z,22.30
2019-03-20T07:48:40.614Z,22.31
2019-03-20T07:51:04.290Z,22.33
2019-03-20T07:53:30.298Z,22.35
2019-03-20T07:55:56.290Z,22.35
2019-03-20T07:58:22.290Z,22.35
2019-03-20T08:00:48.285Z,22.34
2019-03-20T08:03:14.286Z,22.35
2019-03-20T08:05:40.278Z,22.37
2019-03-20T08:08:07.505Z,22.37
2019-03-20T08:10:32.308Z,22.42
2019-03-20T08:12:58.364Z,22.43
2019-03-20T08:15:24.472Z,22.45
2019-03-20T08:17:53.430Z,22.42
2019-03-20T08:20:19.512Z,22.42
2019-03-20T08:22:45.496Z,22.44
2019-03-20T08:25:11.574Z,22.44
2019-03-20T08:27:37.614Z,22.43
2019-03-20T08:30:03.743Z,22.42
2019-03-20T08:32:29.713Z,22.40
2019-03-20T08:34:55.724Z,22.33
2019-03-20T08:37:21.760Z,22.33
2019-03-20T08:39:47.777Z,22.34
2019-03-20T08:44:57.793Z,22.33
2019-03-20T08:47:30.271Z,22.34
2019-03-20T08:49:56.704Z,22.34
2019-03-20T08:52:22.702Z,22.34
2019-03-20T08:54:48.708Z,22.34
2019-03-20T08:57:14.820Z,22.34
2019-03-20T08:59:40.808Z,22.34
2019-03-20T09:02:06.868Z,22.33
2019-03-20T09:04:32.863Z,22.34
2019-03-20T09:06:58.874Z,22.32
2019-03-20T09:09:24.872Z,22.32
2019-03-20T09:14:34.807Z,22.32
2019-03-20T09:17:00.845Z,22.31
2019-03-20T09:19:26.857Z,22.31
2019-03-20T09:21:56.628Z,22.31
2019-03-20T09:24:22.629Z,22.33
2019-03-20T09:26:48.629Z,22.32
2019-03-20T09:29:18.741Z,22.32
2019-03-20T09:31:40.651Z,22.32
2019-03-20T09:34:06.659Z,22.32
2019-03-20T09:36:42.755Z,22.32
2019-03-20T09:38:58.670Z,22.32
2019-03-20T09:41:24.680Z,22.32
2019-03-20T09:43:50.693Z,22.32
2019-03-20T09:46:16.690Z,22.33
2019-03-20T09:48:42.689Z,22.32
2019-03-20T09:51:08.711Z,22.32
2019-03-20T09:53:34.708Z,22.33
2019-03-20T09:56:00.729Z,22.33
2019-03-20T09:58:26.730Z,22.34
2019-03-20T10:00:52.729Z,22.33
2019-03-20T10:03:18.742Z,22.34
2019-03-20T10:05:44.739Z,22.34
2019-03-20T10:08:10.739Z,22.34
2019-03-20T10:10:36.861Z,22.34
2019-03-20T10:13:02.910Z,22.34
2019-03-20T10:15:28.901Z,22.34
2019-03-20T10:17:56.056Z,22.35
2019-03-20T10:20:22.090Z,22.35
2019-03-20T10:22:48.118Z,22.35
2019-03-20T10:25:14.121Z,22.36
2019-03-20T10:27:40.130Z,22.37
2019-03-20T10:30:06.129Z,22.39
2019-03-20T10:32:32.171Z,22.38
2019-03-20T10:34:58.170Z,22.37
2019-03-20T10:37:24.182Z,22.38
2019-03-20T10:39:50.177Z,22.39
2019-03-20T10:42:16.183Z,22.39
2019-03-20T10:44:42.187Z,22.39
2019-03-20T10:47:08.205Z,22.39
2019-03-20T10:49:34.187Z,22.41
2019-03-20T10:52:00.211Z,22.41
2019-03-20T10:54:26.236Z,22.41
2019-03-20T10:56:52.235Z,22.42
2019-03-20T10:59:18.238Z,22.42
2019-03-20T11:01:44.292Z,22.41
2019-03-20T11:04:10.288Z,22.45
2019-03-20T11:06:36.291Z,22.46
2019-03-20T11:09:02.302Z,22.45
2019-03-20T11:11:28.295Z,22.46
2019-03-20T11:13:54.292Z,22.50
2019-03-20T11:16:20.296Z,22.50
2019-03-20T11:18:48.380Z,22.54
2019-03-20T11:21:12.295Z,22.55
2019-03-20T11:23:38.388Z,22.57
2019-03-20T11:26:04.405Z,22.58
2019-03-20T11:28:30.410Z,22.58
2019-03-20T11:30:56.415Z,22.59
2019-03-20T11:33:22.414Z,22.59
2019-03-20T11:35:48.442Z,22.62
2019-03-20T11:38:14.721Z,22.63
2019-03-20T11:40:40.730Z,22.63
2019-03-20T11:43:06.722Z,22.64
2019-03-20T11:45:32.752Z,22.63
2019-03-20T11:47:58.765Z,22.63
2019-03-20T11:50:24.788Z,22.64
2019-03-20T11:52:50.762Z,22.65
2019-03-20T11:55:16.783Z,22.66
2019-03-20T11:57:42.778Z,22.69
2019-03-20T12:00:08.815Z,22.73
2019-03-20T12:02:34.823Z,22.74
2019-03-20T12:05:00.820Z,22.73
2019-03-20T12:07:26.827Z,22.75
2019-03-20T12:09:52.814Z,22.74
2019-03-20T12:12:18.814Z,22.75
2019-03-20T12:14:44.810Z,22.77
2019-03-20T12:17:10.815Z,22.79
2019-03-20T12:19:44.838Z,22.78
2019-03-20T12:22:02.834Z,22.78
2019-03-20T12:24:28.830Z,22.78
2019-03-20T12:26:54.837Z,22.80
2019-03-20T12:29:20.830Z,22.78
2019-03-20T12:31:46.837Z,22.81
2019-03-20T12:34:12.844Z,22.82
2019-03-20T12:36:38.987Z,22.81
2019-03-20T12:39:04.993Z,22.80
2019-03-20T12:41:30.986Z,22.81
2019-03-20T12:43:58.961Z,22.80
2019-03-20T12:46:24.939Z,22.83
2019-03-20T12:48:50.945Z,22.85
2019-03-20T12:51:16.954Z,22.85
2019-03-20T12:53:42.989Z,22.84
2019-03-20T12:56:09.013Z,22.86
2019-03-20T12:58:35.020Z,22.87
2019-03-20T13:01:01.033Z,22.89
2019-03-20T13:03:27.029Z,22.91
2019-03-20T13:05:53.033Z,22.90
2019-03-20T13:08:19.019Z,22.94
2019-03-20T13:10:45.022Z,22.93
2019-03-20T13:13:11.049Z,22.92
2019-03-20T13:15:37.026Z,22.95
2019-03-20T13:18:03.019Z,22.95
2019-03-20T13:20:29.020Z,22.96
2019-03-20T13:22:55.064Z,22.97
2019-03-20T13:25:21.012Z,22.99
2019-03-20T13:27:47.116Z,23.00
2019-03-20T13:30:20.081Z,22.99
2019-03-20T13:32:39.147Z,23.01
2019-03-20T13:35:05.157Z,23.00
2019-03-20T13:37:31.173Z,23.03
2019-03-20T13:39:57.540Z,23.03
2019-03-20T13:42:23.546Z,23.04
2019-03-20T13:44:49.675Z,23.04
2019-03-20T13:47:15.708Z,23.04
2019-03-20T13:49:41.709Z,23.05
2019-03-20T13:52:07.707Z,23.03
2019-03-20T13:54:33.854Z,23.01
2019-03-20T13:56:59.851Z,23.02
2019-03-20T13:59:25.846Z,22.97
2019-03-20T14:01:51.845Z,23.01
2019-03-20T14:04:17.850Z,23.01
2019-03-20T14:06:43.842Z,23.04
2019-03-20T14:09:09.871Z,23.05
2019-03-20T14:11:35.897Z,23.07
2019-03-20T14:14:01.985Z,23.07
2019-03-20T14:16:27.980Z,23.05
2019-03-20T14:18:53.982Z,23.05
2019-03-20T14:21:20.016Z,23.03
2019-03-20T14:23:46.067Z,23.01
2019-03-20T14:26:12.073Z,23.01
2019-03-20T14:28:38.067Z,23.03
2019-03-20T14:31:04.069Z,23.03
2019-03-20T14:33:30.073Z,23.06
2019-03-20T14:35:56.097Z,23.10
2019-03-20T14:38:22.096Z,23.11
2019-03-20T14:40:48.133Z,23.06
2019-03-20T14:43:14.266Z,23.08
2019-03-20T14:45:40.178Z,23.07
2019-03-20T14:48:06.191Z,23.05
2019-03-20T14:50:32.198Z,23.06
2019-03-20T14:52:58.222Z,23.06
2019-03-20T14:55:24.287Z,23.07
2019-03-20T14:57:50.293Z,23.08
2019-03-20T15:00:16.295Z,23.09
2019-03-20T15:02:42.322Z,23.08
2019-03-20T15:05:08.333Z,23.10
2019-03-20T15:07:34.384Z,23.09
2019-03-20T15:10:00.435Z,23.10
2019-03-20T15:12:26.394Z,23.09
2019-03-20T15:14:52.438Z,23.06
2019-03-20T15:17:18.437Z,23.07
2019-03-20T15:19:44.478Z,23.08
2019-03-20T15:22:10.472Z,23.06
2019-03-20T15:24:36.508Z,23.08
2019-03-20T15:27:02.508Z,23.08
2019-03-20T15:29:28.537Z,23.08
2019-03-20T15:31:54.555Z,23.07
2019-03-20T15:34:20.557Z,23.08
2019-03-20T15:36:46.555Z,23.07
2019-03-20T15:39:12.547Z,23.07
2019-03-20T15:41:38.587Z,23.04
2019-03-20T15:44:04.611Z,23.04
2019-03-20T15:46:30.604Z,23.01
2019-03-20T15:48:56.616Z,23.01
2019-03-20T15:51:22.846Z,22.99
2019-03-20T15:53:48.983Z,23.00
2019-03-20T15:56:14.986Z,22.97
2019-03-20T15:58:40.996Z,22.97
2019-03-20T16:01:07.012Z,22.95
2019-03-20T16:03:33.011Z,22.95
2019-03-20T16:05:59.110Z,22.94
2019-03-20T16:08:25.136Z,22.93
2019-03-20T16:10:51.132Z,22.90
2019-03-20T16:13:17.138Z,22.89
2019-03-20T16:15:43.149Z,22.88
2019-03-20T16:18:09.162Z,22.87
2019-03-20T16:20:35.189Z,22.86
2019-03-20T16:23:01.202Z,22.85
2019-03-20T16:25:29.259Z,22.84
2019-03-20T16:27:53.328Z,22.83
2019-03-20T16:30:19.377Z,22.81
2019-03-20T16:32:45.398Z,22.80
2019-03-20T16:35:11.407Z,22.80
2019-03-20T16:37:37.439Z,22.78
2019-03-20T16:40:03.436Z,22.78
2019-03-20T16:42:29.438Z,22.77
2019-03-20T16:44:55.452Z,22.76
2019-03-20T16:47:21.463Z,22.75
2019-03-20T16:49:47.479Z,22.75
2019-03-20T16:52:15.578Z,22.74
2019-03-20T16:54:39.475Z,22.73
2019-03-20T16:57:05.495Z,22.72
2019-03-20T16:59:31.494Z,22.72
2019-03-20T17:01:57.485Z,22.71
2019-03-20T17:04:23.506Z,22.70
2019-03-20T17:06:49.502Z,22.70
2019-03-20T17:09:15.510Z,22.69
2019-03-20T17:11:41.508Z,22.69
2019-03-20T17:14:07.515Z,22.69
2019-03-20T17:16:33.527Z,22.68
2019-03-20T17:18:59.551Z,22.69
2019-03-20T17:21:25.575Z,22.68
2019-03-20T17:23:52.483Z,22.68
2019-03-20T17:26:19.226Z,22.67
2019-03-20T17:28:45.286Z,22.67
2019-03-20T17:31:11.348Z,22.66
2019-03-20T17:33:37.406Z,22.66
2019-03-20T17:36:03.405Z,22.65
2019-03-20T17:38:29.535Z,22.65
2019-03-20T17:40:55.532Z,22.64
2019-03-20T17:43:21.532Z,22.63
2019-03-20T17:45:47.545Z,22.63
2019-03-20T17:48:13.550Z,22.63
2019-03-20T17:50:39.557Z,22.62
2019-03-20T17:53:05.566Z,22.61
2019-03-20T17:55:31.563Z,22.63
2019-03-20T17:57:57.569Z,22.63
2019-03-20T18:00:23.578Z,22.65
2019-03-20T18:02:49.631Z,22.64
2019-03-20T18:05:15.667Z,22.63
2019-03-20T18:07:41.658Z,22.63
2019-03-20T18:10:07.675Z,22.63
2019-03-20T18:12:33.672Z,22.62
2019-03-20T18:14:59.678Z,22.64
2019-03-20T18:17:25.750Z,22.68
2019-03-20T18:19:51.885Z,22.66
2019-03-20T18:22:17.916Z,22.65
2019-03-20T18:24:43.929Z,22.65
2019-03-20T18:27:09.923Z,22.65
2019-03-20T18:29:35.943Z,22.63
2019-03-20T18:32:01.963Z,22.64
2019-03-20T18:34:27.968Z,22.63
2019-03-20T18:36:53.979Z,22.64
2019-03-20T18:39:20.730Z,22.64
2019-03-20T18:41:45.967Z,22.64
2019-03-20T18:44:11.959Z,22.64
2019-03-20T18:46:38.278Z,22.65
2019-03-20T18:49:04.274Z,22.65
2019-03-20T18:51:30.302Z,22.66
2019-03-20T18:53:56.294Z,22.66
2019-03-20T18:56:22.500Z,22.67
2019-03-20T18:58:48.601Z,22.65
2019-03-20T19:01:15.624Z,22.65
2019-03-20T19:03:43.439Z,22.65
2019-03-20T19:06:09.464Z,22.64
2019-03-20T19:08:35.473Z,22.65
2019-03-20T19:11:01.810Z,22.64
2019-03-20T19:13:27.838Z,22.63
2019-03-20T19:15:54.088Z,22.63
2019-03-20T19:18:27.323Z,22.61
2019-03-20T19:20:53.811Z,22.61
2019-03-20T19:23:19.823Z,22.62
2019-03-20T19:25:45.832Z,22.62
2019-03-20T19:30:58.092Z,22.63
2019-03-20T19:33:24.092Z,22.62
2019-03-20T19:35:50.145Z,22.62
2019-03-20T19:38:17.248Z,22.62
2019-03-20T19:40:42.164Z,22.62
2019-03-20T19:43:08.167Z,22.62
2019-03-20T19:45:34.186Z,22.60
2019-03-20T19:48:00.220Z,22.60
2019-03-20T19:50:26.215Z,22.59
2019-03-20T19:52:52.218Z,22.58
2019-03-20T19:55:18.227Z,22.58
2019-03-20T19:57:44.247Z,22.57
2019-03-20T20:00:11.353Z,22.57
2019-03-20T20:02:37.362Z,22.59
2019-03-20T20:05:03.414Z,22.58
2019-03-20T20:07:29.402Z,22.59
2019-03-20T20:09:55.406Z,22.58
2019-03-20T20:12:30.811Z,22.58
2019-03-20T20:14:49.041Z,22.57
2019-03-20T20:17:15.428Z,22.58
2019-03-20T20:19:41.431Z,22.57
2019-03-20T20:22:07.469Z,22.57
2019-03-20T20:24:33.486Z,22.57
2019-03-20T20:26:59.482Z,22.57
2019-03-20T20:29:25.508Z,22.55
2019-03-20T20:31:51.478Z,22.56
2019-03-20T20:34:17.474Z,22.56
2019-03-20T20:36:43.492Z,22.56
2019-03-20T20:39:09.482Z,22.55
2019-03-20T20:41:35.485Z,22.54
2019-03-20T20:44:01.479Z,22.54
2019-03-20T20:46:28.737Z,22.54
2019-03-20T20:48:54.730Z,22.55
2019-03-20T20:51:20.730Z,22.54
2019-03-20T20:53:46.733Z,22.54
2019-03-20T20:56:12.787Z,22.53
2019-03-20T20:58:38.815Z,22.53
2019-03-20T21:01:07.284Z,22.53
2019-03-20T21:03:33.293Z,22.52
2019-03-20T21:05:59.332Z,22.52
2019-03-20T21:08:25.342Z,22.53
2019-03-20T21:10:51.336Z,22.52
2019-03-20T21:13:20.109Z,22.52
2019-03-20T21:15:46.109Z,22.52
2019-03-20T21:18:12.327Z,22.52
2019-03-20T21:20:38.127Z,22.52
2019-03-20T21:23:04.122Z,22.52
2019-03-20T21:25:30.130Z,22.51
2019-03-20T21:27:56.132Z,22.51
2019-03-20T21:30:22.160Z,22.51
2019-03-20T21:32:48.160Z,22.50
2019-03-20T21:35:14.156Z,22.50
2019-03-20T21:37:40.160Z,22.50
2019-03-20T21:40:06.157Z,22.49
2019-03-20T21:42:32.168Z,22.50
2019-03-20T21:44:58.150Z,22.50
2019-03-20T21:47:24.152Z,22.50
2019-03-20T21:49:50.153Z,22.50
2019-03-20T21:52:16.174Z,22.49
2019-03-20T21:54:42.168Z,22.50
2019-03-20T21:57:08.164Z,22.50
2019-03-20T21:59:34.164Z,22.49
2019-03-20T22:02:00.167Z,22.48
2019-03-20T22:04:26.327Z,22.48
2019-03-20T22:06:52.325Z,22.47
2019-03-20T22:09:18.324Z,22.48
2019-03-20T22:11:44.321Z,22.48
2019-03-20T22:14:10.339Z,22.48
2019-03-20T22:16:36.335Z,22.48
2019-03-20T22:19:02.333Z,22.48
2019-03-20T22:21:28.385Z,22.47
2019-03-20T22:23:54.364Z,22.47
2019-03-20T22:26:20.375Z,22.47
2019-03-20T22:28:46.367Z,22.47
2019-03-20T22:31:12.375Z,22.48
2019-03-20T22:33:38.372Z,22.47
2019-03-20T22:36:04.381Z,22.45
2019-03-20T22:38:30.377Z,22.46
2019-03-20T22:40:56.402Z,22.47
2019-03-20T22:43:30.210Z,22.46
2019-03-20T22:45:48.394Z,22.46
2019-03-20T22:48:14.393Z,22.46
2019-03-20T22:50:40.387Z,22.47
2019-03-20T22:53:06.390Z,22.45
2019-03-20T22:55:32.386Z,22.46
2019-03-20T22:57:58.386Z,22.45
2019-03-20T23:00:24.385Z,22.45
2019-03-20T23:02:50.402Z,22.46
2019-03-20T23:05:16.400Z,22.46
2019-03-20T23:07:42.400Z,22.45
2019-03-20T23:10:08.408Z,22.45
2019-03-20T23:12:34.403Z,22.45
2019-03-20T23:15:00.403Z,22.45
2019-03-20T23:17:26.394Z,22.45
2019-03-20T23:19:52.408Z,22.44
2019-03-20T23:22:18.407Z,22.45
2019-03-20T23:24:44.408Z,22.44
2019-03-20T23:27:10.405Z,22.44
2019-03-20T23:29:36.414Z,22.44
2019-03-20T23:32:02.411Z,22.44
2019-03-20T23:34:28.414Z,22.43
2019-03-20T23:36:54.410Z,22.43
2019-03-20T23:39:20.407Z,22.43
2019-03-20T23:41:46.411Z,22.43
2019-03-20T23:44:12.403Z,22.43
2019-03-20T23:46:38.408Z,22.43
2019-03-20T23:49:04.406Z,22.43
2019-03-20T23:51:30.408Z,22.43
2019-03-20T23:53:56.410Z,22.42
2019-03-20T23:56:22.407Z,22.42
2019-03-20T23:58:48.411Z,22.43
